Time;durP1;ratioP1;P1;durP2;ratioP2;P2;SDS_P1;SDS_P2;PMS_P1;PMS_P2;Temp;Humidity;BMP_temperature;BMP_pressure;BME280_temperature;BME280_humidity;BME280_pressure;Samples;Min_cycle;Max_cycle;Signal;HPM_P1;HPM_P2
2021/12/28 00:02:05;;;;;;;12.43;3.33;;;;;;;9.20;100.00;98973.09;5052601;28;20444;-69
2021/12/28 00:04:49;;;;;;;20.60;4.93;;;;;;;9.17;100.00;98960.94;5051785;28;20068;-71
2021/12/28 00:07:33;;;;;;;9.05;2.92;;;;;;;9.21;100.00;98964.97;5051736;28;20183;-70
2021/12/28 00:10:17;;;;;;;;;;;;;;;9.36;100.00;98962.47;5051965;28;20106;-71
2021/12/28 00:13:01;;;;;;;16.15;3.30;;;;;;;9.40;100.00;98958.44;5051922;28;20324;-70
2021/12/28 00:18:36;;;;;;;13.13;3.30;;;;;;;9.60;100.00;98938.47;5052417;28;20495;-70
2021/12/28 00:21:20;;;;;;;11.88;4.00;;;;;;;9.62;100.00;98941.78;5051379;28;20051;-71
2021/12/28 00:24:04;;;;;;;12.52;2.63;;;;;;;9.60;100.00;98933.16;5051797;28;20047;-70
2021/12/28 00:26:48;;;;;;;19.77;3.58;;;;;;;9.74;100.00;98930.63;5051529;28;20356;-69
2021/12/28 00:29:32;;;;;;;8.80;2.80;;;;;;;9.75;100.00;98934.94;5051546;28;20099;-70
2021/12/28 00:32:16;;;;;;;8.20;3.17;;;;;;;9.80;100.00;98935.22;5051448;28;20047;-71
2021/12/28 00:35:00;;;;;;;;;;;;;;;9.77;100.00;98926.78;5052940;28;20568;-70
2021/12/28 00:37:44;;;;;;;10.27;3.05;;;;;;;9.83;100.00;98928.75;5052471;28;19919;-71
2021/12/28 00:40:28;;;;;;;9.00;2.55;;;;;;;9.99;100.00;98928.69;5040761;28;20048;-70
2021/12/28 00:43:12;;;;;;;11.57;2.72;;;;;;;9.93;100.00;98926.72;5055312;28;20059;-70
2021/12/28 00:45:56;;;;;;;;;;;;;;;9.92;100.00;98922.41;5056823;28;20515;-70
2021/12/28 00:48:40;;;;;;;11.10;3.70;;;;;;;10.00;100.00;98938.34;5056616;28;19920;-70
2021/12/28 00:51:24;;;;;;;;;;;;;;;10.04;100.00;98926.38;5041221;28;20071;-69
2021/12/28 00:54:08;;;;;;;16.63;4.10;;;;;;;10.12;100.00;98916.53;5056594;28;20027;-70
2021/12/28 00:56:52;;;;;;;15.20;3.97;;;;;;;10.03;100.00;98911.41;5055278;28;20118;-70
2021/12/28 00:59:36;;;;;;;17.08;3.72;;;;;;;9.95;100.00;98912.25;5056093;28;20036;-70
2021/12/28 01:02:20;;;;;;;12.55;4.50;;;;;;;9.90;100.00;98897.78;5041160;28;20056;-70
2021/12/28 01:05:04;;;;;;;14.15;3.38;;;;;;;9.82;100.00;98889.84;5054773;28;20055;-71
2021/12/28 01:07:48;;;;;;;12.63;2.90;;;;;;;9.72;100.00;98891.88;5056240;28;20044;-69
2021/12/28 01:10:40;;;;;;;17.63;3.78;;;;;;;9.66;100.00;98884.56;5040726;28;20059;-70
2021/12/28 01:13:25;;;;;;;15.60;3.33;;;;;;;9.63;100.00;98884.91;5054983;28;20048;-70
2021/12/28 01:16:09;;;;;;;15.10;3.22;;;;;;;9.51;100.00;98876.47;5055867;28;20052;-69
2021/12/28 01:18:53;;;;;;;15.32;3.53;;;;;;;9.49;100.00;98872.31;5054265;28;20101;-71
2021/12/28 01:21:37;;;;;;;17.67;3.10;;;;;;;9.42;100.00;98871.34;5054547;28;20080;-70
2021/12/28 01:24:21;;;;;;;14.27;3.28;;;;;;;9.42;100.00;98871.34;5054729;28;20521;-70
2021/12/28 01:27:05;;;;;;;25.55;3.28;;;;;;;9.35;100.00;98865.03;5040407;28;20136;-70
2021/12/28 01:29:49;;;;;;;14.98;2.80;;;;;;;9.37;100.00;98857.75;5055452;28;20182;-70
2021/12/28 01:32:33;;;;;;;18.85;3.50;;;;;;;9.38;100.00;98854.06;5054359;28;20048;-70
2021/12/28 01:35:18;;;;;;;14.10;3.42;;;;;;;9.40;100.00;98873.34;5054235;28;20527;-71
2021/12/28 01:38:02;;;;;;;14.50;3.67;;;;;;;9.42;100.00;98860.69;5054076;28;20107;-70
2021/12/28 01:40:48;;;;;;;20.42;3.80;;;;;;;9.38;100.00;98862.06;5055480;28;20051;-71
2021/12/28 01:43:32;;;;;;;13.07;3.25;;;;;;;9.39;100.00;98855.72;5054185;28;20175;-71
2021/12/28 01:46:16;;;;;;;11.60;3.53;;;;;;;9.39;100.00;98858.41;5055076;28;20107;-70
2021/12/28 01:49:00;;;;;;;14.27;3.30;;;;;;;9.32;100.00;98857.41;5054022;28;20111;-69
2021/12/28 01:51:44;;;;;;;13.80;3.30;;;;;;;9.34;100.00;98858.06;5053692;28;20047;-70
2021/12/28 01:54:28;;;;;;;11.95;3.22;;;;;;;9.37;100.00;98857.75;5053916;28;20047;-70
2021/12/28 01:57:12;;;;;;;11.05;3.15;;;;;;;9.35;100.00;98859.72;5054777;28;20052;-71
2021/12/28 01:59:56;;;;;;;11.65;2.78;;;;;;;9.35;100.00;98843.75;5039718;28;20098;-70
2021/12/28 02:02:40;;;;;;;12.40;3.42;;;;;;;9.50;100.00;98842.06;5055310;28;20055;-71
2021/12/28 02:05:25;;;;;;;10.98;2.65;;;;;;;9.45;100.00;98833.75;5087405;22;20056;-69
2021/12/28 02:08:09;;;;;;;13.98;3.22;;;;;;;9.41;100.00;98835.09;5019905;28;20048;-69
2021/12/28 02:10:55;;;;;;;12.52;3.08;;;;;;;9.61;100.00;98828.38;5019833;28;20048;-69
2021/12/28 02:13:39;;;;;;;12.52;2.75;;;;;;;9.55;100.00;98823.75;5020026;28;20397;-69
2021/12/28 02:16:23;;;;;;;11.75;2.42;;;;;;;9.58;100.00;98823.41;5019576;28;20056;-68
2021/12/28 02:19:08;;;;;;;12.93;2.53;;;;;;;9.62;100.00;98817.59;5019481;28;20095;-69
2021/12/28 02:21:52;;;;;;;10.35;2.55;;;;;;;9.70;100.00;98816.72;5005847;28;20460;-69
2021/12/28 02:24:36;;;;;;;4.63;1.80;;;;;;;9.69;100.00;98807.06;5019607;28;20043;-69
2021/12/28 02:27:20;;;;;;;10.95;2.40;;;;;;;9.76;100.00;98797.38;5034374;28;20044;-70
2021/12/28 02:30:07;;;;;;;12.07;2.55;;;;;;;9.79;100.00;98791.72;5019338;28;20056;-69
2021/12/28 02:32:52;;;;;;;6.15;1.90;;;;;;;9.76;100.00;98792.03;5019561;28;20080;-69
2021/12/28 02:35:37;;;;;;;9.30;2.08;;;;;;;9.88;100.00;98794.16;5005730;28;20124;-69
2021/12/28 02:38:21;;;;;;;7.43;2.58;;;;;;;9.81;100.00;98789.72;5019303;28;20056;-69
2021/12/28 02:41:05;;;;;;;;;;;;;;;9.81;100.00;98787.03;5019773;28;20409;-69
2021/12/28 02:43:49;;;;;;;8.60;2.07;;;;;;;9.81;100.00;98787.03;5034555;28;19936;-69
2021/12/28 02:46:34;;;;;;;9.73;2.58;;;;;;;9.95;100.00;98775.63;5019125;28;20132;-69
2021/12/28 02:49:18;;;;;;;12.65;2.10;;;;;;;9.96;100.00;98780.78;5019050;28;20488;-69
2021/12/28 02:52:02;;;;;;;8.85;2.08;;;;;;;9.95;100.00;98773.81;5033880;28;20129;-69
2021/12/28 02:54:46;;;;;;;13.90;2.08;;;;;;;9.98;100.00;98768.13;5005011;28;20053;-69
2021/12/28 02:57:30;;;;;;;10.38;2.00;;;;;;;10.05;100.00;98768.28;5018817;28;20055;-69
2021/12/28 03:00:19;;;;;;;7.35;2.13;;;;;;;10.12;100.00;98763.91;5018710;28;20183;-69
2021/12/28 03:03:11;;;;;;;9.50;2.08;;;;;;;10.09;100.00;98765.09;5018137;28;20052;-69
2021/12/28 03:05:57;;;;;;;6.57;1.60;;;;;;;10.09;100.00;98758.97;5033613;28;20484;-69
2021/12/28 03:08:45;;;;;;;6.97;1.70;;;;;;;10.18;100.00;98763.22;5033798;28;20424;-69
2021/12/28 03:11:29;;;;;;;6.50;2.35;;;;;;;10.12;100.00;98753.28;5033755;28;20048;-70
2021/12/28 03:14:13;;;;;;;8.63;1.90;;;;;;;10.13;100.00;98754.91;5004909;28;20053;-69
2021/12/28 03:16:57;;;;;;;12.40;2.67;;;;;;;10.22;100.00;98751.19;5033651;28;20052;-70
2021/12/28 03:19:42;;;;;;;8.10;2.10;;;;;;;10.10;100.00;98755.28;5004646;28;20060;-70
2021/12/28 03:22:26;;;;;;;8.00;2.20;;;;;;;10.17;100.00;98753.53;5018419;28;20133;-70
2021/12/28 03:25:10;;;;;;;6.93;2.45;;;;;;;10.11;100.00;98751.63;5033255;28;20056;-70
2021/12/28 03:27:54;;;;;;;9.05;2.28;;;;;;;9.83;100.00;98748.63;5033246;28;20052;-71
2021/12/28 03:30:38;;;;;;;7.60;2.05;;;;;;;9.61;100.00;98741.44;5004668;28;20460;-70
2021/12/28 03:33:23;;;;;;;10.02;2.15;;;;;;;9.47;100.00;98741.34;5033146;28;20103;-70
2021/12/28 03:36:07;;;;;;;6.53;1.98;;;;;;;9.26;100.00;98733.13;5033276;28;20515;-70
2021/12/28 03:38:51;;;;;;;6.00;1.95;;;;;;;9.07;100.00;98729.03;5018002;28;20433;-70
2021/12/28 03:41:35;;;;;;;11.05;3.08;;;;;;;8.93;100.00;98720.94;5004315;28;20092;-69
2021/12/28 03:44:20;;;;;;;15.50;3.90;;;;;;;8.90;100.00;98727.44;5018618;28;20099;-70
2021/12/28 03:47:04;;;;;;;17.25;2.38;;;;;;;8.80;100.00;98723.31;5017830;28;20044;-70
2021/12/28 03:49:48;;;;;;;18.40;2.35;;;;;;;8.77;100.00;98718.34;5032935;28;20052;-69
2021/12/28 03:52:32;;;;;;;28.67;2.67;;;;;;;8.69;100.00;98707.72;5018378;28;20455;-70
2021/12/28 03:55:16;;;;;;;18.63;3.00;;;;;;;8.66;100.00;98708.91;5004054;28;20048;-69
2021/12/28 03:58:02;;;;;;;9.85;1.95;;;;;;;8.69;100.00;98711.22;5017938;28;20520;-70
2021/12/28 04:00:48;;;;;;;17.67;2.15;;;;;;;8.70;100.00;98693.44;5004364;28;20099;-70
2021/12/28 04:03:32;;;;;;;17.60;2.35;;;;;;;8.72;100.00;98696.75;5018036;28;20171;-70
2021/12/28 04:06:18;;;;;;;9.85;1.95;;;;;;;8.71;100.00;98687.97;5017691;28;20048;-70
2021/12/28 04:09:04;;;;;;;10.68;2.25;;;;;;;8.71;100.00;98681.81;5018313;28;20044;-69
2021/12/28 04:11:48;;;;;;;9.10;1.80;;;;;;;8.72;100.00;98686.13;5032717;28;20047;-70
2021/12/28 04:14:32;;;;;;;5.38;1.60;;;;;;;8.74;100.00;98678.81;5017902;28;20083;-70
2021/12/28 04:17:16;;;;;;;12.63;1.80;;;;;;;8.70;100.00;98678.34;5017520;28;20072;-70
2021/12/28 04:19:59;;;;;;;20.75;3.10;;;;;;;8.68;100.00;98676.84;5017931;28;20151;-70
2021/12/28 04:22:44;;;;;;;10.13;2.00;;;;;;;8.65;100.00;98670.06;5017788;28;20049;-68
2021/12/28 04:25:28;;;;;;;14.77;2.22;;;;;;;8.54;100.00;98677.56;5017634;28;20110;-70
2021/12/28 04:28:12;;;;;;;13.57;2.08;;;;;;;8.51;100.00;98667.28;5003845;28;20049;-71
2021/12/28 04:30:56;;;;;;;15.07;2.83;;;;;;;8.54;100.00;98664.28;5032673;28;20050;-70
2021/12/28 04:33:40;;;;;;;7.00;1.70;;;;;;;8.54;100.00;98665.09;5017492;28;20071;-70
2021/12/28 04:36:23;;;;;;;;;;;;;;;8.53;100.00;98667.91;5033264;28;20064;-70
2021/12/28 04:39:07;;;;;;;13.40;2.37;;;;;;;8.49;100.00;98666.63;5032569;28;19923;-70
2021/12/28 04:41:51;;;;;;;;;;;;;;;8.46;100.00;98666.97;5017841;28;20140;-70
2021/12/28 04:44:36;;;;;;;11.93;1.93;;;;;;;8.46;100.00;98666.97;5017582;28;19920;-70
2021/12/28 04:47:20;;;;;;;13.45;2.40;;;;;;;8.46;100.00;98664.31;5032263;28;20088;-70
2021/12/28 04:50:05;;;;;;;13.20;2.10;;;;;;;8.46;100.00;98661.66;5032614;28;20050;-70
2021/12/28 04:52:50;;;;;;;7.18;1.67;;;;;;;8.43;100.00;98664.63;5003464;28;20110;-70
2021/12/28 04:55:34;;;;;;;11.23;3.05;;;;;;;8.42;100.00;98657.66;5017495;28;20061;-70
2021/12/28 04:58:18;;;;;;;8.90;2.03;;;;;;;8.44;100.00;98653.03;5017391;28;20045;-70
2021/12/28 05:01:03;;;;;;;7.13;1.70;;;;;;;8.43;100.00;98659.31;5017398;28;20098;-70
2021/12/28 05:03:47;;;;;;;7.15;1.52;;;;;;;8.42;100.00;98660.31;5003572;28;20107;-70
2021/12/28 05:06:32;;;;;;;15.80;2.60;;;;;;;8.42;100.00;98662.97;5032073;28;20052;-70
2021/12/28 05:09:18;;;;;;;16.00;1.73;;;;;;;8.42;100.00;98668.28;5017392;28;20111;-70
2021/12/28 05:12:02;;;;;;;10.18;2.20;;;;;;;8.43;100.00;98656.66;5032253;28;20053;-70
2021/12/28 05:14:46;;;;;;;4.85;1.60;;;;;;;8.44;100.00;98658.34;5003508;28;20048;-70
2021/12/28 05:17:30;;;;;;;6.93;1.67;;;;;;;8.42;100.00;98649.69;5032214;28;20457;-69
2021/12/28 05:20:14;;;;;;;10.40;2.60;;;;;;;8.32;100.00;98641.94;5032179;28;20052;-70
2021/12/28 05:22:58;;;;;;;;;;;;;;;8.33;100.00;98637.44;5032726;28;20507;-70
2021/12/28 05:25:43;;;;;;;8.23;1.95;;;;;;;8.35;100.00;98632.81;5018898;28;20032;-70
2021/12/28 05:28:27;;;;;;;17.33;2.33;;;;;;;8.34;100.00;98631.97;5007551;28;20045;-70
2021/12/28 05:31:11;;;;;;;15.15;2.63;;;;;;;8.25;100.00;98627.66;5022850;28;20056;-70
2021/12/28 05:33:55;;;;;;;30.67;3.63;;;;;;;8.20;100.00;98629.16;5022979;28;20421;-70
2021/12/28 05:36:39;;;;;;;10.57;2.28;;;;;;;8.20;100.00;98624.69;5022391;28;20076;-70
2021/12/28 05:39:23;;;;;;;8.23;2.03;;;;;;;8.24;100.00;98618.03;5035313;28;20048;-70
2021/12/28 05:42:08;;;;;;;11.30;2.05;;;;;;;8.28;100.00;98616.72;5020789;28;20048;-70
2021/12/28 05:44:52;;;;;;;17.90;2.60;;;;;;;8.28;100.00;98603.47;5006642;28;20405;-70
2021/12/28 05:47:36;;;;;;;16.80;3.08;;;;;;;8.25;100.00;98595.81;5006618;28;20417;-70
2021/12/28 05:50:20;;;;;;;17.00;2.80;;;;;;;8.25;100.00;98587.03;5006506;28;20068;-70
2021/12/28 05:53:04;;;;;;;23.35;3.13;;;;;;;8.30;100.00;98595.31;5006394;28;20120;-70
2021/12/28 05:55:48;;;;;;;18.05;3.15;;;;;;;8.26;100.00;98588.69;5020238;28;20080;-70
2021/12/28 05:58:33;;;;;;;12.13;2.95;;;;;;;8.23;100.00;98583.72;5020149;28;20049;-70
2021/12/28 06:01:17;;;;;;;21.95;3.40;;;;;;;8.25;100.00;98579.06;5035143;28;20103;-70
2021/12/28 06:04:02;;;;;;;14.30;2.80;;;;;;;8.32;100.00;98566.75;5035385;28;20075;-70
2021/12/28 06:06:45;;;;;;;9.70;3.17;;;;;;;8.32;100.00;98577.38;5019718;28;20052;-70
2021/12/28 06:09:29;;;;;;;10.52;2.30;;;;;;;8.42;100.00;98578.00;5035291;28;20130;-70
2021/12/28 06:12:13;;;;;;;8.02;3.30;;;;;;;8.40;100.00;98574.69;5034763;28;20044;-70
2021/12/28 06:14:57;;;;;;;11.68;2.63;;;;;;;8.47;100.00;98578.34;5035202;28;20064;-70
2021/12/28 06:17:41;;;;;;;;;;;;;;;8.50;100.00;98578.81;5006259;28;20166;-70
2021/12/28 06:20:25;;;;;;;11.30;2.50;;;;;;;8.53;100.00;98581.13;5019950;28;19920;-69
2021/12/28 06:23:10;;;;;;;;;;;;;;;8.58;100.00;98589.38;5020010;28;20052;-70
2021/12/28 06:25:54;;;;;;;;;;;;;;;8.59;100.00;98590.22;5020450;28;20343;-70
2021/12/28 06:28:38;;;;;;;7.00;2.20;;;;;;;8.60;100.00;98578.59;5020064;28;19970;-69
2021/12/28 06:31:23;;;;;;;8.82;1.85;;;;;;;8.63;100.00;98587.06;5034515;28;20044;-70
2021/12/28 06:34:07;;;;;;;8.32;1.90;;;;;;;8.67;100.00;98592.88;5019549;28;20048;-70
2021/12/28 06:36:54;;;;;;;6.30;1.67;;;;;;;8.68;100.00;98589.19;5034477;28;20107;-70
2021/12/28 06:39:38;;;;;;;3.88;1.52;;;;;;;8.77;100.00;98591.63;5019337;28;20044;-69
2021/12/28 06:42:22;;;;;;;4.43;1.40;;;;;;;8.91;100.00;98593.59;5019421;28;20179;-69
2021/12/28 06:45:07;;;;;;;2.47;1.00;;;;;;;9.05;100.00;98600.00;5019344;28;20572;-69
2021/12/28 06:47:51;;;;;;;4.70;1.00;;;;;;;9.06;100.00;98597.13;5019426;28;20052;-70
2021/12/28 06:50:35;;;;;;;7.15;1.10;;;;;;;9.00;100.00;98589.88;5019101;28;20089;-70
2021/12/28 06:53:18;;;;;;;1.60;0.90;;;;;;;8.98;100.00;98602.50;5034448;28;20072;-69
2021/12/28 06:56:03;;;;;;;1.88;0.88;;;;;;;9.01;100.00;98591.53;5005175;28;20056;-70
2021/12/28 06:58:47;;;;;;;1.40;0.98;;;;;;;9.06;100.00;98588.34;5005098;28;20520;-70
2021/12/28 07:01:31;;;;;;;2.13;0.90;;;;;;;9.05;100.00;98592.00;5033906;28;20072;-70
2021/12/28 07:04:15;;;;;;;1.88;0.90;;;;;;;9.11;100.00;98580.66;5005184;28;20096;-70
2021/12/28 07:06:59;;;;;;;;;;;;;;;9.12;100.00;98577.00;5018947;28;20472;-70
2021/12/28 07:09:43;;;;;;;2.95;0.70;;;;;;;9.13;100.00;98583.97;5033989;28;19960;-70
2021/12/28 07:12:27;;;;;;;;;;;;;;;9.23;100.00;98579.25;5034272;28;20172;-70
2021/12/28 07:15:11;;;;;;;2.93;0.93;;;;;;;9.26;100.00;98578.94;5033748;28;19919;-69
2021/12/28 07:17:55;;;;;;;3.95;1.10;;;;;;;9.31;100.00;98584.53;5018525;28;20053;-70
2021/12/28 07:20:39;;;;;;;0.75;0.60;;;;;;;9.30;100.00;98580.22;5004894;28;20087;-70
2021/12/28 07:23:23;;;;;;;1.30;0.60;;;;;;;9.18;100.00;98589.59;5018949;28;20048;-70
2021/12/28 07:26:06;;;;;;;0.65;0.55;;;;;;;9.22;100.00;98588.22;5004632;28;20088;-70
2021/12/28 07:28:51;;;;;;;;;;;;;;;9.15;100.00;98590.78;5033987;28;20044;-70
2021/12/28 07:31:35;;;;;;;4.22;0.70;;;;;;;9.09;100.00;98593.31;5033770;28;20265;-69
2021/12/28 07:34:19;;;;;;;0.90;0.73;;;;;;;9.08;100.00;98591.66;5033754;28;20404;-70
2021/12/28 07:37:03;;;;;;;5.10;0.73;;;;;;;9.06;100.00;98593.66;5033130;28;20056;-70
2021/12/28 07:39:50;;;;;;;1.85;0.77;;;;;;;9.03;100.00;98594.00;5018168;28;20044;-70
2021/12/28 07:42:35;;;;;;;1.98;0.82;;;;;;;9.01;100.00;98596.84;5018364;28;20068;-70
2021/12/28 07:45:19;;;;;;;4.20;0.80;;;;;;;9.03;100.00;98605.47;5004603;28;20052;-70
2021/12/28 07:48:03;;;;;;;4.50;0.90;;;;;;;9.04;100.00;98609.78;5017879;28;20393;-68
2021/12/28 07:50:47;;;;;;;1.20;0.80;;;;;;;9.02;100.00;98608.28;5033700;28;20110;-71
2021/12/28 07:53:32;;;;;;;2.03;1.13;;;;;;;9.01;100.00;98609.28;5033079;28;20060;-70
2021/12/28 07:56:16;;;;;;;3.83;1.05;;;;;;;9.03;100.00;98607.28;5032881;28;20048;-71
2021/12/28 07:58:59;;;;;;;;;;;;;;;9.01;100.00;98599.50;5018440;28;20056;-69
2021/12/28 08:01:43;;;;;;;2.15;1.00;;;;;;;9.02;100.00;98608.28;5004218;28;19920;-70
2021/12/28 08:04:28;;;;;;;;;;;;;;;9.05;100.00;98602.66;5033557;28;20570;-70
2021/12/28 08:07:12;;;;;;;1.90;1.25;;;;;;;9.05;100.00;98603.47;5003771;28;19928;-70
2021/12/28 08:09:56;;;;;;;;;;;;;;;9.10;100.00;98608.25;5033096;28;20048;-70
2021/12/28 08:12:40;;;;;;;3.30;0.98;;;;;;;9.11;100.00;98609.91;5017688;28;20304;-70
2021/12/28 08:15:24;;;;;;;;;;;;;;;9.11;100.00;98608.09;5033273;28;20091;-70
2021/12/28 08:18:09;;;;;;;2.20;1.20;;;;;;;9.13;100.00;98605.22;5045620;23;20080;-71
2021/12/28 08:20:53;;;;;;;0.85;0.80;;;;;;;9.18;100.00;98605.56;5013011;28;20056;-70
2021/12/28 08:23:37;;;;;;;1.73;1.10;;;;;;;9.21;100.00;98610.50;4998466;28;20087;-69
2021/12/28 08:26:22;;;;;;;0.90;0.90;;;;;;;9.26;100.00;98611.63;5013341;28;20100;-71
2021/12/28 08:29:06;;;;;;;2.10;1.00;;;;;;;9.29;100.00;98613.13;4984313;28;20041;-71
2021/12/28 08:31:50;;;;;;;6.07;1.10;;;;;;;9.33;100.00;98622.41;4997992;28;20576;-71
2021/12/28 08:34:34;;;;;;;2.47;0.88;;;;;;;9.33;100.00;98627.72;4998347;28;20056;-71
2021/12/28 08:37:18;;;;;;;6.70;1.05;;;;;;;9.38;100.00;98630.69;4998331;28;20450;-71
2021/12/28 08:40:04;;;;;;;0.70;0.70;;;;;;;9.43;100.00;98660.22;5012865;28;20052;-70
2021/12/28 08:42:48;;;;;;;1.33;0.98;;;;;;;9.46;100.00;98638.63;4984089;28;20571;-71
2021/12/28 08:45:33;;;;;;;0.65;0.65;;;;;;;9.48;100.00;98644.59;5012970;28;20080;-71
2021/12/28 08:48:17;;;;;;;1.15;0.85;;;;;;;9.46;100.00;98639.44;4998169;28;20048;-71
2021/12/28 08:51:00;;;;;;;2.50;0.93;;;;;;;9.48;100.00;98640.06;4997927;28;20099;-70
2021/12/28 08:53:44;;;;;;;3.58;1.10;;;;;;;9.48;100.00;98641.94;5012975;28;20512;-71
2021/12/28 08:56:28;;;;;;;1.77;0.82;;;;;;;9.51;100.00;98657.53;4997885;28;20104;-71
2021/12/28 08:59:13;;;;;;;1.50;0.73;;;;;;;9.49;100.00;98651.56;5012507;28;20083;-71
2021/12/28 09:01:57;;;;;;;0.75;0.75;;;;;;;9.49;100.00;98664.84;5016454;28;20100;-71
2021/12/28 09:04:43;;;;;;;1.67;0.90;;;;;;;9.51;100.00;98657.53;5016618;28;20476;-71
2021/12/28 09:07:27;;;;;;;1.63;0.90;;;;;;;9.51;100.00;98661.03;5001707;28;20057;-71
2021/12/28 09:10:11;;;;;;;0.98;0.90;;;;;;;9.53;100.00;98671.47;5016435;28;20406;-71
2021/12/28 09:12:55;;;;;;;0.75;0.70;;;;;;;9.57;100.00;98683.44;5001341;28;20056;-71
2021/12/28 09:15:41;;;;;;;4.25;1.02;;;;;;;9.60;100.00;98669.78;5001362;28;20049;-70
2021/12/28 09:18:25;;;;;;;2.92;0.80;;;;;;;9.63;100.00;98680.91;5016263;28;20095;-70
2021/12/28 09:21:09;;;;;;;1.13;0.70;;;;;;;9.68;100.00;98691.00;4987849;28;20053;-70
2021/12/28 09:23:53;;;;;;;1.35;0.80;;;;;;;9.69;100.00;98696.13;5001385;28;20202;-71
2021/12/28 09:26:37;;;;;;;1.20;0.90;;;;;;;9.70;100.00;98695.13;5015971;28;20199;-71
2021/12/28 09:29:25;;;;;;;3.60;0.88;;;;;;;9.71;100.00;98710.13;5001480;28;20115;-71
2021/12/28 09:32:10;;;;;;;2.17;0.93;;;;;;;9.70;100.00;98696.97;5016339;28;20548;-71
2021/12/28 09:34:55;;;;;;;1.70;0.80;;;;;;;9.70;100.00;98689.81;5001046;28;20092;-70
2021/12/28 09:37:39;;;;;;;1.33;0.88;;;;;;;9.76;100.00;98715.72;5015903;28;20084;-71
2021/12/28 09:40:23;;;;;;;0.82;0.70;;;;;;;9.79;100.00;98720.69;5001103;28;20099;-71
2021/12/28 09:43:08;;;;;;;0.75;0.70;;;;;;;9.90;100.00;98719.47;5016033;28;20421;-72
2021/12/28 09:45:52;;;;;;;1.85;0.68;;;;;;;10.11;100.00;98720.47;5000914;28;20139;-71
2021/12/28 09:48:36;;;;;;;2.53;0.68;;;;;;;10.22;100.00;98727.22;5015524;28;20053;-70
2021/12/28 09:51:20;;;;;;;1.92;0.70;;;;;;;10.25;100.00;98717.06;5000717;28;20516;-70
2021/12/28 09:54:04;;;;;;;0.60;0.60;;;;;;;10.33;100.00;98731.13;5000793;28;20044;-70
2021/12/28 09:56:47;;;;;;;0.80;0.65;;;;;;;10.36;100.00;98721.94;5000725;28;20096;-70
2021/12/28 09:59:32;;;;;;;1.33;0.82;;;;;;;10.33;100.00;98724.97;5015091;28;20045;-70
2021/12/28 10:02:17;;;;;;;0.55;0.55;;;;;;;10.28;100.00;98732.66;4986580;28;20084;-71
2021/12/28 10:05:06;;;;;;;0.95;0.70;;;;;;;10.23;100.00;98731.53;5000756;28;20048;-71
2021/12/28 10:07:56;;;;;;;3.45;0.80;;;;;;;10.28;100.00;98732.66;5000293;28;20057;-71
2021/12/28 10:10:43;;;;;;;0.82;0.70;;;;;;;10.33;100.00;98740.97;5015038;28;20045;-70
2021/12/28 10:13:29;;;;;;;0.73;0.68;;;;;;;10.31;100.00;98735.81;5000143;28;20045;-70
2021/12/28 10:16:13;;;;;;;0.90;0.80;;;;;;;10.34;100.00;98753.28;5000141;28;20057;-71
2021/12/28 10:19:32;;;;;;;3.53;0.90;;;;;;;10.17;100.00;98732.25;4999868;28;20049;-70
2021/12/28 10:22:20;;;;;;;1.20;0.90;;;;;;;10.13;100.00;98722.97;5015121;28;20176;-71
2021/12/28 10:25:12;;;;;;;2.50;1.10;;;;;;;10.06;100.00;98727.34;5015007;28;20076;-72
2021/12/28 10:28:08;;;;;;;1.55;1.17;;;;;;;10.07;100.00;98744.97;4999894;28;20088;-71
2021/12/28 10:30:56;;;;;;;1.83;1.30;;;;;;;10.09;100.00;98737.66;4999836;28;20527;-71
2021/12/28 10:33:39;;;;;;;1.52;1.30;;;;;;;10.10;100.00;98729.47;5014768;28;20052;-71
2021/12/28 10:36:31;;;;;;;1.88;1.10;;;;;;;10.14;100.00;98729.94;5015148;28;20044;-71
2021/12/28 10:39:15;;;;;;;0.95;0.93;;;;;;;10.21;100.00;98737.03;4999446;28;20095;-70
2021/12/28 10:41:59;;;;;;;1.98;1.40;;;;;;;10.30;100.00;98725.31;4999856;28;20456;-71
2021/12/28 10:44:59;;;;;;;1.85;1.20;;;;;;;10.37;100.00;98728.94;5014646;28;20108;-69
2021/12/28 10:47:43;;;;;;;4.07;1.40;;;;;;;10.43;100.00;98728.22;4985942;28;20049;-69
2021/12/28 10:50:31;;;;;;;4.22;1.52;;;;;;;10.48;100.00;98720.50;4999908;28;20052;-71
2021/12/28 10:53:20;;;;;;;3.03;1.55;;;;;;;10.51;100.00;98728.13;5014322;28;20103;-71
2021/12/28 10:56:06;;;;;;;3.83;1.20;;;;;;;10.52;100.00;98725.28;4999669;28;20099;-71
2021/12/28 10:58:52;;;;;;;2.13;1.30;;;;;;;10.60;100.00;98730.53;4999445;28;20520;-69
2021/12/28 11:01:38;;;;;;;1.27;1.17;;;;;;;10.58;100.00;98723.72;4999497;28;20119;-71
2021/12/28 11:04:33;;;;;;;2.92;1.50;;;;;;;10.61;100.00;98713.53;4999258;28;20130;-71
2021/12/28 11:07:20;;;;;;;1.73;1.30;;;;;;;10.57;100.00;98714.91;5014401;28;20052;-70
2021/12/28 11:10:04;;;;;;;1.92;1.23;;;;;;;10.64;100.00;98709.69;4985474;28;20188;-69
2021/12/28 11:12:48;;;;;;;1.50;1.40;;;;;;;10.73;100.00;98708.56;5014068;28;20438;-70
2021/12/28 11:15:37;;;;;;;2.13;1.35;;;;;;;10.73;100.00;98704.09;5014144;28;20099;-70
2021/12/28 11:18:44;;;;;;;1.30;1.20;;;;;;;10.78;100.00;98711.53;5013455;28;20125;-70
2021/12/28 11:21:34;;;;;;;3.17;1.23;;;;;;;10.81;100.00;98705.84;4998198;28;20049;-71
2021/12/28 11:24:21;;;;;;;1.42;1.30;;;;;;;10.69;100.00;98699.31;4998585;28;20053;-71
2021/12/28 11:27:05;;;;;;;3.95;1.30;;;;;;;10.72;100.00;98683.78;4998811;28;20081;-70
2021/12/28 11:29:49;;;;;;;3.33;1.33;;;;;;;10.85;100.00;98685.81;4998767;28;20053;-71
2021/12/28 11:32:33;;;;;;;;;;;;;;;10.93;100.00;98675.88;5014616;28;20520;-72
2021/12/28 11:35:17;;;;;;;3.07;1.40;;;;;;;11.01;100.00;98667.78;5014109;28;19936;-71
2021/12/28 11:38:01;;;;;;;1.35;1.25;;;;;;;11.16;100.00;98673.91;4998714;28;20381;-71
2021/12/28 11:40:45;;;;;;;1.92;1.42;;;;;;;11.28;100.00;98669.75;5013690;28;20144;-71
2021/12/28 11:43:29;;;;;;;1.75;1.45;;;;;;;11.39;100.00;98663.13;4998760;28;20049;-71
2021/12/28 11:46:14;;;;;;;2.40;1.17;;;;;;;11.50;100.00;98674.16;4998560;28;20056;-72
2021/12/28 11:48:58;;;;;;;1.40;1.08;;;;;;;11.64;100.00;98669.78;4998316;28;20044;-70
2021/12/28 11:51:46;;;;;;;3.35;1.10;;;;;;;11.73;100.00;98661.47;4998912;28;20116;-71
2021/12/28 11:54:35;;;;;;;0.95;0.90;;;;;;;11.77;100.00;98651.25;5000635;28;20100;-71
2021/12/28 11:57:22;;;;;;;0.85;0.85;;;;;;;11.84;100.00;98644.13;5000597;28;20049;-71
2021/12/28 12:00:10;;;;;;;4.82;0.93;;;;;;;11.83;100.00;98634.47;4988302;28;20096;-71
2021/12/28 12:02:54;;;;;;;3.38;0.90;;;;;;;11.85;100.00;98633.25;5000207;28;20053;-70
2021/12/28 12:05:43;;;;;;;;;;;;;;;11.88;100.00;98640.06;5013595;28;20567;-71
2021/12/28 12:08:27;;;;;;;1.98;1.00;;;;;;;11.50;100.00;98662.63;5013246;28;19936;-71
2021/12/28 12:11:11;;;;;;;1.35;1.05;;;;;;;11.10;100.00;98656.00;5013207;28;20112;-71
2021/12/28 12:13:54;;;;;;;;;;;;;;;11.02;100.00;98663.25;5013353;28;20417;-71
2021/12/28 12:16:39;;;;;;;1.67;1.33;;;;;;;10.97;100.00;98671.81;5013179;28;20285;-70
2021/12/28 12:19:48;;;;;;;2.38;1.30;;;;;;;10.93;100.00;98656.38;4997932;28;20294;-70
2021/12/28 12:22:32;;;;;;;2.17;1.50;;;;;;;10.97;100.00;98652.34;4998248;28;20052;-71
2021/12/28 12:25:22;;;;;;;2.88;1.30;;;;;;;10.90;100.00;98660.25;4998203;28;20053;-70
2021/12/28 12:28:06;;;;;;;1.98;1.20;;;;;;;10.88;100.00;98656.94;4997917;28;20049;-71
2021/12/28 12:30:53;;;;;;;;;;;;;;;10.94;100.00;98650.88;4998527;28;20064;-71
2021/12/28 12:33:42;;;;;;;4.30;1.27;;;;;;;10.95;100.00;98646.38;4998021;28;20003;-71
2021/12/28 12:36:34;;;;;;;2.58;1.40;;;;;;;10.89;100.00;98650.59;5016804;28;20052;-71
2021/12/28 12:39:21;;;;;;;1.42;1.15;;;;;;;10.94;100.00;98634.88;5001735;28;20048;-71
2021/12/28 12:42:09;;;;;;;2.42;1.25;;;;;;;10.87;100.00;98639.28;5017054;28;20072;-71
2021/12/28 12:44:54;;;;;;;4.63;1.20;;;;;;;10.91;100.00;98629.06;5001958;28;20052;-70
2021/12/28 12:47:37;;;;;;;3.13;1.48;;;;;;;10.97;100.00;98631.00;5016806;28;20080;-71
2021/12/28 12:50:24;;;;;;;3.38;1.17;;;;;;;11.09;100.00;98625.03;5001834;28;20049;-71
2021/12/28 12:53:45;;;;;;;2.70;1.00;;;;;;;11.23;100.00;98608.16;5017005;28;20468;-71
2021/12/28 12:56:43;;;;;;;3.30;1.40;;;;;;;11.42;100.00;98586.22;5001913;28;20103;-69
2021/12/28 12:59:38;;;;;;;4.07;1.35;;;;;;;11.52;100.00;98581.38;5001439;28;20041;-71
2021/12/28 13:02:28;;;;;;;3.08;0.70;;;;;;;11.50;100.00;98582.56;5016561;28;20096;-71